Wellington, Illinois
Current Conditions -  °F | °C
As of 10:35 AM on Friday 31 Oct 2014 (Local Time) from KDNV Reporting Station
Overcast Overcast  
Wind Chill: 28°   Ceiling: 2800
Heat Index: 38°   Visibility: 10mi
Dew Point: 29°   Wind: 21mph
Humidity: 72%   Direction: 340°NNW
Pressure: 30.07"   Gusts: 28mph
Location:  40.54°N, 87.68°W
Report Text: KDNV 311535Z AUTO 34018G24KT 10SM OVC028 03/M01 A3007 RMK AO2 T00331014
Loading
Personal Weather Stations






























Interactive Weather Map
Tropical Storm Tracking
New forecast layout! Learn more

10-Day Weather Forecast

Advertisements
Track Severe Weather on mobile